Time;durP1;ratioP1;P1;durP2;ratioP2;P2;SDS_P1;SDS_P2;PMS_P1;PMS_P2;Temp;Humidity;BMP_temperature;BMP_pressure;BME280_temperature;BME280_humidity;BME280_pressure;Samples;Min_cycle;Max_cycle;Signal;HPM_P1;HPM_P2
2023/04/06 00:01:07;;;;;;;24.95;15.52;;;;;;;2.12;82.62;101043.56;5093780;28;20448;-78
2023/04/06 00:03:34;;;;;;;19.35;14.38;;;;;;;2.17;82.81;101057.88;5115876;28;20063;-83
2023/04/06 00:06:01;;;;;;;24.17;14.70;;;;;;;2.05;82.54;101043.09;5124499;28;20055;-82
2023/04/06 00:08:28;;;;;;;23.20;14.38;;;;;;;2.08;82.36;101050.66;5127071;28;20055;-81
2023/04/06 00:10:57;;;;;;;22.38;15.50;;;;;;;1.97;82.27;101037.56;5118244;28;20105;-79
2023/04/06 00:13:24;;;;;;;29.42;14.63;;;;;;;1.97;82.59;101053.03;5102227;28;20047;-80
2023/04/06 00:15:51;;;;;;;25.30;15.82;;;;;;;2.01;83.37;101049.38;5115999;28;20052;-82
2023/04/06 00:18:19;;;;;;;24.75;16.13;;;;;;;1.95;83.19;101057.47;5116593;28;20043;-80
2023/04/06 00:20:46;;;;;;;25.33;15.95;;;;;;;1.98;83.64;101054.72;5104440;28;20051;-79
2023/04/06 00:23:12;;;;;;;24.13;15.52;;;;;;;2.02;83.34;101047.63;5090875;28;20048;-79
2023/04/06 00:25:39;;;;;;;22.95;15.35;;;;;;;2.05;83.33;101045.69;5098905;28;20071;-80
2023/04/06 00:28:07;;;;;;;25.15;16.00;;;;;;;2.01;83.32;101046.78;5113638;28;20055;-81
2023/04/06 00:30:34;;;;;;;25.30;15.55;;;;;;;1.97;83.69;101043.56;5118930;28;20492;-79
2023/04/06 00:33:01;;;;;;;28.05;16.10;;;;;;;1.91;84.41;101032.75;5094609;28;20040;-79
2023/04/06 00:35:28;;;;;;;27.80;17.33;;;;;;;1.86;84.49;101037.38;5110713;28;20067;-80
2023/04/06 00:37:54;;;;;;;25.45;16.63;;;;;;;1.84;84.90;101042.63;5103841;28;20059;-78
2023/04/06 00:40:21;;;;;;;29.00;16.52;;;;;;;1.92;84.79;101039.56;5111631;28;20058;-80
2023/04/06 00:42:48;;;;;;;29.83;16.35;;;;;;;1.91;84.95;101033.59;5103081;28;20067;-80
2023/04/06 00:45:17;;;;;;;28.08;16.35;;;;;;;1.87;85.39;101028.72;5105136;28;20040;-81
2023/04/06 00:47:44;;;;;;;30.70;16.33;;;;;;;1.89;85.21;101024.31;5114611;28;20491;-80
2023/04/06 00:50:11;;;;;;;30.20;16.48;;;;;;;1.89;85.14;101027.69;5104156;28;20066;-80
2023/04/06 00:52:38;;;;;;;20.98;15.00;;;;;;;1.90;84.78;101020.78;5113190;28;20055;-80
2023/04/06 00:55:06;;;;;;;26.92;15.75;;;;;;;1.77;84.49;101004.38;5121103;28;20191;-79
2023/04/06 00:57:32;;;;;;;25.35;15.32;;;;;;;1.89;84.65;101011.41;5110736;28;20476;-81
2023/04/06 00:59:59;;;;;;;30.92;16.15;;;;;;;1.77;84.20;101012.97;5112703;28;20051;-81
2023/04/06 01:02:27;;;;;;;23.52;15.18;;;;;;;1.72;84.22;101014.13;5110122;28;20078;-79
2023/04/06 01:04:55;;;;;;;29.73;16.35;;;;;;;1.65;84.57;101000.78;5091166;28;20056;-78
2023/04/06 01:07:22;;;;;;;26.35;16.08;;;;;;;1.62;84.75;101016.41;5096590;28;20105;-78
2023/04/06 01:09:49;;;;;;;28.30;15.48;;;;;;;1.35;85.08;100972.44;5110469;28;20068;-81
2023/04/06 01:12:16;;;;;;;27.25;16.80;;;;;;;1.45;85.32;101014.81;5082613;28;20070;-81
2023/04/06 01:14:43;;;;;;;27.67;16.70;;;;;;;1.38;85.72;100998.06;5116422;28;20079;-80
2023/04/06 01:17:10;;;;;;;36.70;16.75;;;;;;;1.29;85.79;100996.00;5116076;28;20063;-81
2023/04/06 01:19:40;;;;;;;25.27;16.55;;;;;;;1.14;85.87;100976.25;5113459;28;20422;-80
2023/04/06 01:22:06;;;;;;;28.52;17.15;;;;;;;1.33;86.14;101002.66;5099567;28;20044;-80
2023/04/06 01:24:35;;;;;;;32.40;16.23;;;;;;;1.32;86.05;101000.97;5102872;28;20491;-79
2023/04/06 01:27:01;;;;;;;29.08;15.52;;;;;;;1.28;86.19;100994.34;5100915;28;20044;-81
2023/04/06 01:29:28;;;;;;;26.70;15.80;;;;;;;1.22;86.00;100979.22;5108719;28;20055;-80
2023/04/06 01:31:55;;;;;;;26.95;15.23;;;;;;;1.35;85.91;100989.66;5114469;28;20043;-81
2023/04/06 01:34:22;;;;;;;30.83;16.30;;;;;;;1.40;85.90;100988.50;5125481;28;20059;-81
2023/04/06 01:36:49;;;;;;;24.77;16.17;;;;;;;1.42;86.15;100978.88;5105225;28;20078;-80
2023/04/06 01:39:16;;;;;;;26.25;15.25;;;;;;;1.44;85.69;100973.63;5122672;28;20099;-79
2023/04/06 01:41:44;;;;;;;24.67;15.77;;;;;;;1.47;85.57;100971.72;5114223;28;20056;-81
2023/04/06 01:44:11;;;;;;;26.85;15.30;;;;;;;1.50;85.48;100979.28;5114463;28;20051;-81
2023/04/06 01:46:38;;;;;;;24.40;16.48;;;;;;;1.39;85.25;100953.31;5115518;28;20074;-80
2023/04/06 01:49:04;;;;;;;27.67;16.30;;;;;;;1.43;85.39;100971.97;5109308;28;20044;-80
2023/04/06 01:51:31;;;;;;;25.73;15.68;;;;;;;1.31;85.18;100961.47;5090742;28;20048;-79
2023/04/06 01:53:59;;;;;;;27.85;16.25;;;;;;;1.16;85.49;100940.91;5112052;28;20062;-81
2023/04/06 01:59:24;;;;;;;26.45;15.52;;;;;;;1.11;86.09;100950.66;5085926;28;20149;-80
2023/04/06 02:02:03;;;;;;;25.38;17.23;;;;;;;1.16;85.92;100958.94;5112645;28;20515;-80
2023/04/06 02:10:59;;;;;;;27.75;15.77;;;;;;;0.99;85.98;100934.13;5100854;28;20051;-80
2023/04/06 02:16:50;;;;;;;27.05;16.70;;;;;;;0.98;86.33;100966.78;5084958;28;20048;-79
2023/04/06 02:25:13;;;;;;;28.23;16.55;;;;;;;0.68;87.28;100940.19;5089588;28;20067;-80
2023/04/06 02:28:12;;;;;;;31.38;17.83;;;;;;;0.83;87.19;100966.84;5079448;28;20056;-81
2023/04/06 02:33:38;;;;;;;29.65;17.23;;;;;;;0.73;87.75;100956.22;5063999;28;20056;-82
2023/04/06 02:36:05;;;;;;;28.90;17.10;;;;;;;0.60;87.92;100934.63;5080700;28;20053;-84
2023/04/06 02:38:37;;;;;;;28.52;17.27;;;;;;;0.63;88.18;100934.47;5092207;28;20040;-83
2023/04/06 02:41:05;;;;;;;28.05;17.20;;;;;;;0.76;88.53;100960.38;5093924;28;20048;-81
2023/04/06 02:43:31;;;;;;;27.58;16.92;;;;;;;0.71;88.34;100952.91;5097360;28;20127;-80
2023/04/06 02:45:58;;;;;;;33.42;17.58;;;;;;;0.63;88.89;100955.91;5100081;28;20053;-83
2023/04/06 02:48:27;;;;;;;32.40;17.25;;;;;;;0.66;89.05;100949.75;5105997;28;20055;-82
2023/04/06 02:51:04;;;;;;;29.30;18.20;;;;;;;0.71;89.03;100958.06;5091253;28;20057;-83
2023/04/06 02:53:38;;;;;;;31.30;17.98;;;;;;;0.75;89.02;100961.28;5087511;28;20050;-80
2023/04/06 02:59:39;;;;;;;28.02;17.65;;;;;;;0.61;89.26;100939.69;5027845;28;20053;-83
2023/04/06 03:05:03;;;;;;;29.77;18.70;;;;;;;0.69;89.83;100962.47;5091191;28;20060;-82
2023/04/06 03:08:03;;;;;;;29.13;18.13;;;;;;;0.61;89.92;100959.47;5099333;28;20066;-82
2023/04/06 03:10:51;;;;;;;29.60;17.55;;;;;;;0.55;90.36;100959.81;5084098;28;20048;-82
2023/04/06 03:22:59;;;;;;;26.38;16.80;;;;;;;0.38;91.75;100934.16;5098838;28;20097;-82
2023/04/06 03:25:26;;;;;;;27.83;17.42;;;;;;;0.35;91.97;100939.47;5095918;28;20053;-81
2023/04/06 03:27:52;;;;;;;29.35;17.90;;;;;;;0.26;91.84;100925.38;5091560;28;20104;-81
2023/04/06 03:34:17;;;;;;;34.05;18.75;;;;;;;0.18;91.93;100922.38;5054408;28;20039;-80
2023/04/06 03:36:44;;;;;;;34.85;18.15;;;;;;;0.10;92.45;100925.34;5090384;28;20516;-81
2023/04/06 03:39:16;;;;;;;33.45;19.33;;;;;;;0.21;92.62;100943.63;5079835;28;20049;-81
2023/04/06 03:44:36;;;;;;;29.05;18.20;;;;;;;0.41;92.85;100957.19;5091659;28;20103;-80
2023/04/06 03:47:11;;;;;;;28.52;18.40;;;;;;;0.25;92.80;100950.28;5087691;28;20074;-80
2023/04/06 03:49:55;;;;;;;33.65;18.40;;;;;;;0.27;93.25;100950.19;5086898;28;20072;-81
2023/04/06 04:03:10;;;;;;;29.05;18.02;;;;;;;-0.02;93.71;100920.88;5089957;28;20060;-82
2023/04/06 04:09:03;;;;;;;29.65;18.92;;;;;;;0.10;93.92;100940.78;5060109;28;20045;-83
2023/04/06 04:11:42;;;;;;;34.58;19.80;;;;;;;0.15;93.62;100940.53;5089259;28;20032;-80
2023/04/06 04:14:09;;;;;;;30.92;18.02;;;;;;;0.11;93.99;100941.63;5097931;28;20124;-81
2023/04/06 04:16:36;;;;;;;31.17;19.73;;;;;;;0.06;93.64;100934.13;5099788;28;20058;-81
2023/04/06 04:19:03;;;;;;;34.05;18.98;;;;;;;-0.04;94.01;100933.00;5097382;28;20050;-83
2023/04/06 04:21:31;;;;;;;34.83;18.75;;;;;;;-0.12;94.40;100924.84;5082975;28;20053;-82
2023/04/06 04:24:00;;;;;;;36.28;19.15;;;;;;;0.09;94.23;100964.03;5079862;28;20668;-82
2023/04/06 04:26:27;;;;;;;33.95;19.27;;;;;;;-0.01;94.60;100955.97;5098058;28;20048;-81
2023/04/06 04:28:54;;;;;;;35.88;20.02;;;;;;;0.03;94.52;100964.34;5106540;28;20060;-82
2023/04/06 04:31:22;;;;;;;32.85;19.38;;;;;;;0.02;94.56;100948.06;5093681;28;20052;-80
2023/04/06 04:33:50;;;;;;;36.10;20.23;;;;;;;0.03;95.04;100956.63;5094005;28;20065;-83
2023/04/06 04:36:17;;;;;;;36.13;20.67;;;;;;;-0.01;95.04;100955.97;5100719;28;20059;-81
2023/04/06 04:39:04;;;;;;;;;;;;;;;;;;;;;
2023/04/06 04:41:51;;;;;;;30.20;18.98;;;;;;;-0.16;95.16;100926.75;5081325;28;20059;-80
2023/04/06 04:44:22;;;;;;;35.17;20.50;;;;;;;0.04;95.22;100956.53;5076877;28;20049;-82
2023/04/06 04:46:49;;;;;;;34.55;19.88;;;;;;;-0.11;95.21;100929.91;5095650;28;20048;-82
2023/04/06 04:49:17;;;;;;;36.17;20.05;;;;;;;0.07;94.95;100945.25;5100645;28;20037;-80
2023/04/06 04:51:46;;;;;;;29.67;18.80;;;;;;;0.08;95.33;100952.06;5093367;28;20110;-80
2023/04/06 04:54:15;;;;;;;33.58;20.20;;;;;;;0.09;95.31;100953.72;5088766;28;20048;-84
2023/04/06 04:56:42;;;;;;;28.20;17.65;;;;;;;0.08;95.22;100945.19;5080141;28;20045;-82
2023/04/06 04:59:14;;;;;;;30.65;19.35;;;;;;;0.13;95.34;100950.91;5105434;28;20061;-82
2023/04/06 05:01:43;;;;;;;30.67;18.00;;;;;;;0.13;94.95;100939.78;5086620;28;20052;-83
2023/04/06 05:04:13;;;;;;;30.35;18.17;;;;;;;0.12;94.85;100932.97;5090893;28;20071;-82
2023/04/06 05:06:52;;;;;;;32.60;18.00;;;;;;;0.10;95.18;100940.78;5076879;28;20112;-82
2023/04/06 05:09:28;;;;;;;31.48;18.25;;;;;;;0.23;94.82;100959.81;5081512;28;20040;-81
2023/04/06 05:18:35;;;;;;;26.60;17.60;;;;;;;0.27;94.62;100943.28;5073869;28;20060;-82
2023/04/06 05:28:35;;;;;;;30.27;16.65;;;;;;;0.64;93.35;100957.56;4990538;28;20058;-81
2023/04/06 05:34:16;;;;;;;25.63;16.83;;;;;;;0.83;92.50;100952.22;5078718;28;20131;-82
2023/04/06 05:36:58;;;;;;;25.73;15.45;;;;;;;0.71;92.15;100932.28;5094755;28;20059;-82
2023/04/06 05:39:25;;;;;;;23.90;16.20;;;;;;;0.80;91.75;100939.50;5086136;28;20059;-81
2023/04/06 05:42:47;;;;;;;32.95;17.70;;;;;;;0.89;91.94;100941.56;5079567;28;20036;-82
2023/04/06 05:52:26;;;;;;;24.05;15.95;;;;;;;1.30;90.50;100951.25;5012519;28;20084;-82
2023/04/06 05:55:05;;;;;;;26.52;16.80;;;;;;;1.31;90.30;100963.22;5065405;28;20048;-81
2023/04/06 05:57:32;;;;;;;24.98;16.38;;;;;;;1.35;89.95;100953.56;5100106;28;20092;-79
2023/04/06 05:59:58;;;;;;;26.70;16.90;;;;;;;1.41;89.59;100954.06;5107854;28;20048;-80
2023/04/06 06:02:25;;;;;;;25.75;16.02;;;;;;;1.42;89.46;100947.16;5107689;28;20058;-82
2023/04/06 06:04:52;;;;;;;23.67;15.80;;;;;;;1.51;88.96;100950.00;5100911;28;20028;-80
2023/04/06 06:07:20;;;;;;;23.58;15.75;;;;;;;1.68;88.72;100954.16;5086106;28;20059;-80
2023/04/06 06:09:47;;;;;;;22.30;15.88;;;;;;;1.79;88.21;100943.19;5109338;28;20056;-80
2023/04/06 06:12:14;;;;;;;22.65;15.07;;;;;;;1.93;87.84;100946.59;5087696;28;20064;-80
2023/04/06 06:14:41;;;;;;;28.77;15.52;;;;;;;2.18;87.32;100947.69;5088269;28;20052;-80
2023/04/06 06:17:08;;;;;;;21.05;15.02;;;;;;;2.23;86.53;100938.72;5095830;28;20056;-81
2023/04/06 06:19:34;;;;;;;23.52;15.95;;;;;;;2.62;86.24;100939.72;5085416;28;20056;-82
2023/04/06 06:22:02;;;;;;;24.05;15.95;;;;;;;2.57;85.50;100921.94;5090200;28;20048;-80
2023/04/06 06:24:31;;;;;;;22.13;16.02;;;;;;;3.20;84.81;100925.59;5102705;28;20068;-81
2023/04/06 06:26:58;;;;;;;26.52;14.95;;;;;;;3.88;83.14;100920.09;5088972;28;20047;-80
2023/04/06 06:29:25;;;;;;;20.75;14.55;;;;;;;4.58;80.89;100907.34;5076632;28;20160;-80
2023/04/06 06:31:52;;;;;;;21.55;14.15;;;;;;;4.98;79.03;100906.09;5097325;28;20044;-80
2023/04/06 06:34:19;;;;;;;20.67;12.75;;;;;;;5.65;77.52;100910.56;5107684;28;20435;-80
2023/04/06 06:36:46;;;;;;;17.63;12.88;;;;;;;5.76;75.97;100899.34;5081601;28;20056;-79
2023/04/06 06:39:15;;;;;;;16.75;12.48;;;;;;;5.77;75.57;100908.78;5085288;28;20075;-83
2023/04/06 06:41:44;;;;;;;22.08;14.38;;;;;;;5.88;74.46;100901.00;5095637;28;20052;-81
2023/04/06 06:44:11;;;;;;;18.40;13.38;;;;;;;6.37;73.74;100899.75;5093975;28;20044;-80
2023/04/06 06:46:38;;;;;;;17.65;13.15;;;;;;;6.90;72.29;100905.81;5083505;28;20051;-82
2023/04/06 06:49:05;;;;;;;21.48;13.35;;;;;;;7.53;70.34;100901.41;5093019;28;20338;-81
2023/04/06 06:51:32;;;;;;;18.23;13.32;;;;;;;7.73;69.43;100897.09;5097987;28;20098;-81
2023/04/06 06:53:59;;;;;;;19.20;13.18;;;;;;;7.25;69.11;100892.50;5096418;28;20045;-80
2023/04/06 06:56:26;;;;;;;20.88;14.40;;;;;;;6.83;70.64;100907.28;5099600;28;20051;-82
2023/04/06 06:58:54;;;;;;;17.45;13.30;;;;;;;7.40;69.79;100896.41;5087405;28;20588;-80
2023/04/06 07:01:21;;;;;;;19.33;13.05;;;;;;;8.38;68.11;100890.59;5097578;28;20460;-80
2023/04/06 07:03:48;;;;;;;18.38;12.95;;;;;;;8.04;67.11;100877.84;5097638;28;20048;-81
2023/04/06 07:06:15;;;;;;;17.75;12.85;;;;;;;7.68;66.99;100874.06;5107710;28;20039;-82
2023/04/06 07:08:41;;;;;;;18.35;12.95;;;;;;;7.47;67.02;100878.50;5103826;28;20106;-79
2023/04/06 07:11:08;;;;;;;18.83;12.93;;;;;;;8.20;66.68;100883.38;5080193;28;20048;-80
2023/04/06 07:13:35;;;;;;;18.42;12.32;;;;;;;8.32;65.28;100871.94;5104745;28;20458;-80
2023/04/06 07:16:03;;;;;;;19.27;13.05;;;;;;;8.98;64.14;100866.81;5091769;28;20059;-80
2023/04/06 07:18:30;;;;;;;19.70;12.65;;;;;;;8.24;65.27;100869.13;5091210;28;20055;-80
2023/04/06 07:20:56;;;;;;;26.70;13.93;;;;;;;7.32;66.85;100876.22;5087532;28;20075;-80
2023/04/06 07:23:23;;;;;;;19.90;14.60;;;;;;;6.71;68.23;100885.69;5093056;28;20053;-81
2023/04/06 07:25:50;;;;;;;16.67;12.80;;;;;;;6.66;68.77;100885.22;5087170;28;20052;-79
2023/04/06 07:28:17;;;;;;;19.92;13.50;;;;;;;6.72;69.65;100889.94;5096867;28;20076;-80
2023/04/06 07:30:44;;;;;;;19.38;13.85;;;;;;;6.95;69.20;100886.28;5081844;28;20048;-79
2023/04/06 07:33:12;;;;;;;22.92;13.70;;;;;;;6.82;69.39;100883.03;5086145;28;20055;-79
2023/04/06 07:35:39;;;;;;;21.42;13.73;;;;;;;7.68;68.56;100881.88;5084181;28;20466;-80
2023/04/06 07:38:06;;;;;;;21.80;14.38;;;;;;;7.61;67.80;100871.16;5083688;28;20090;-81
2023/04/06 07:40:33;;;;;;;22.30;14.30;;;;;;;7.70;67.81;100868.72;5083290;28;20477;-79
2023/04/06 07:43:00;;;;;;;20.60;14.85;;;;;;;7.65;67.45;100867.31;5091647;28;20611;-80
2023/04/06 07:45:26;;;;;;;23.80;14.32;;;;;;;7.60;67.68;100872.09;5084399;28;20049;-79
2023/04/06 07:47:53;;;;;;;24.08;14.63;;;;;;;7.56;67.07;100870.72;5077489;28;20052;-81
2023/04/06 07:50:21;;;;;;;26.20;15.13;;;;;;;7.59;67.41;100873.06;5071831;28;20064;-80
2023/04/06 07:52:48;;;;;;;22.77;15.05;;;;;;;7.99;66.67;100872.25;5072104;28;20440;-81
2023/04/06 07:55:20;;;;;;;22.63;13.93;;;;;;;8.16;66.00;100868.16;5100361;28;20565;-80
2023/04/06 07:57:47;;;;;;;22.57;13.47;;;;;;;8.71;64.80;100864.09;5099180;28;20048;-78
2023/04/06 08:00:14;;;;;;;20.15;14.55;;;;;;;9.09;63.99;100873.66;5101579;28;20312;-81
2023/04/06 08:02:41;;;;;;;19.42;13.73;;;;;;;8.71;63.15;100858.06;5092859;28;20066;-81
2023/04/06 08:05:08;;;;;;;19.40;14.02;;;;;;;8.54;63.74;100864.78;5090025;28;20714;-80
2023/04/06 08:07:36;;;;;;;18.60;13.63;;;;;;;8.82;63.05;100861.34;5103918;28;20052;-79
2023/04/06 08:10:04;;;;;;;23.15;14.52;;;;;;;9.23;63.26;100864.56;5103164;28;20059;-80
2023/04/06 08:12:31;;;;;;;22.33;14.95;;;;;;;9.06;62.46;100855.66;5096907;28;20056;-82
2023/04/06 08:14:57;;;;;;;17.35;13.75;;;;;;;9.08;62.65;100858.13;5095109;28;20529;-81
2023/04/06 08:17:24;;;;;;;19.50;14.10;;;;;;;9.59;62.91;100870.75;5080847;28;20112;-80
2023/04/06 08:19:51;;;;;;;21.85;14.63;;;;;;;9.45;62.57;100861.59;5094555;28;20079;-81
2023/04/06 08:22:18;;;;;;;17.70;13.80;;;;;;;9.06;62.68;100850.44;5091093;28;20044;-81
2023/04/06 08:24:46;;;;;;;22.17;14.07;;;;;;;9.24;62.61;100863.59;5078963;28;20045;-81
2023/04/06 08:27:14;;;;;;;21.13;14.80;;;;;;;9.65;62.27;100857.94;5083300;28;20059;-81
2023/04/06 08:29:41;;;;;;;23.08;13.93;;;;;;;9.37;61.71;100853.69;5076997;28;20113;-80
2023/04/06 08:32:08;;;;;;;23.65;14.45;;;;;;;9.84;61.59;100861.44;5099368;28;20074;-81
2023/04/06 08:34:34;;;;;;;27.25;15.20;;;;;;;10.01;60.94;100855.41;5098240;28;20085;-80
2023/04/06 08:37:05;;;;;;;21.10;14.23;;;;;;;10.04;61.05;100852.50;5100224;28;20121;-81
2023/04/06 08:39:33;;;;;;;22.73;15.40;;;;;;;10.17;60.88;100852.97;5101740;28;20051;-80
2023/04/06 08:42:02;;;;;;;23.60;15.10;;;;;;;10.80;60.30;100844.25;5099049;28;20518;-82
2023/04/06 08:44:30;;;;;;;21.48;14.75;;;;;;;10.86;59.54;100830.56;5094238;28;20044;-80
2023/04/06 08:46:57;;;;;;;20.80;15.25;;;;;;;10.47;58.90;100845.75;5097199;28;20057;-81
2023/04/06 08:49:24;;;;;;;24.33;15.70;;;;;;;10.10;59.71;100846.69;5075500;28;20044;-80
2023/04/06 08:51:51;;;;;;;22.85;14.90;;;;;;;10.02;60.27;100849.22;5077636;28;20131;-80
2023/04/06 08:54:18;;;;;;;22.63;15.32;;;;;;;10.16;60.48;100851.34;5082239;28;20052;-79
2023/04/06 08:56:45;;;;;;;20.67;14.43;;;;;;;10.51;59.32;100839.25;5096596;28;20048;-78
2023/04/06 08:59:14;;;;;;;21.25;14.85;;;;;;;10.61;59.32;100838.22;5080404;28;20482;-79
2023/04/06 09:01:43;;;;;;;26.77;14.80;;;;;;;10.63;59.20;100849.34;5081840;28;20052;-79
2023/04/06 09:04:11;;;;;;;21.08;14.60;;;;;;;11.08;58.85;100837.06;5072706;28;20053;-79
2023/04/06 09:06:40;;;;;;;20.50;15.35;;;;;;;10.44;59.12;100838.22;5076148;28;20049;-80
2023/04/06 09:09:06;;;;;;;25.08;15.35;;;;;;;10.36;60.05;100846.00;5071831;28;20051;-78
2023/04/06 09:11:44;;;;;;;21.08;14.55;;;;;;;11.28;59.51;100838.50;5075233;28;20083;-80
2023/04/06 09:14:11;;;;;;;21.08;14.20;;;;;;;10.92;59.72;100838.59;5073852;28;20040;-79
2023/04/06 09:16:42;;;;;;;21.73;14.48;;;;;;;11.09;59.08;100841.34;5077731;28;20566;-78
2023/04/06 09:19:09;;;;;;;22.45;15.05;;;;;;;10.95;59.27;100851.38;5075277;28;20098;-79
2023/04/06 09:21:37;;;;;;;23.77;15.27;;;;;;;10.86;59.45;100839.25;5080634;28;20044;-78
2023/04/06 09:24:04;;;;;;;22.52;15.40;;;;;;;10.84;59.73;100843.81;5078820;28;20129;-78
2023/04/06 09:26:33;;;;;;;23.98;15.68;;;;;;;10.96;59.41;100834.69;5078445;28;20044;-77
2023/04/06 09:29:01;;;;;;;28.27;15.85;;;;;;;10.74;60.03;100847.47;5075470;28;20091;-76
2023/04/06 09:31:29;;;;;;;23.58;16.45;;;;;;;11.41;59.86;100836.28;5074373;28;20051;-81
2023/04/06 09:33:58;;;;;;;24.08;14.70;;;;;;;11.96;58.13;100828.00;5073131;28;20041;-80
2023/04/06 09:36:31;;;;;;;24.20;15.48;;;;;;;11.68;58.63;100832.63;5075217;28;20048;-78
2023/04/06 09:38:59;;;;;;;25.48;15.45;;;;;;;11.70;58.39;100829.84;5075941;28;20144;-80
2023/04/06 09:41:27;;;;;;;23.02;15.40;;;;;;;11.43;58.31;100825.63;5078769;28;20040;-77
2023/04/06 09:44:03;;;;;;;22.90;15.23;;;;;;;11.46;58.88;100826.16;5078753;28;20084;-79
2023/04/06 09:46:33;;;;;;;26.38;16.13;;;;;;;11.78;59.42;100829.94;5072719;28;20605;-77
2023/04/06 09:49:03;;;;;;;26.77;15.50;;;;;;;12.57;57.61;100821.50;5080954;28;20108;-80
2023/04/06 09:51:32;;;;;;;27.15;17.08;;;;;;;12.94;56.96;100819.19;5078033;28;20086;-78
2023/04/06 09:54:01;;;;;;;21.08;14.57;;;;;;;13.09;55.72;100816.69;5072438;28;20135;-79
2023/04/06 09:56:32;;;;;;;26.45;15.68;;;;;;;12.46;55.74;100822.66;5073153;28;20123;-79
2023/04/06 09:59:06;;;;;;;27.70;15.80;;;;;;;12.21;56.86;100836.75;5067081;28;20048;-77
2023/04/06 10:01:36;;;;;;;22.52;15.35;;;;;;;12.18;57.22;100834.44;5068383;28;20044;-78
2023/04/06 10:04:14;;;;;;;21.73;15.15;;;;;;;12.60;57.92;100836.94;5074281;28;20075;-80
2023/04/06 10:06:41;;;;;;;27.95;16.90;;;;;;;12.90;56.67;100831.00;5073606;28;20044;-81
2023/04/06 10:09:09;;;;;;;26.50;16.35;;;;;;;12.72;56.24;100819.06;5084133;28;20056;-79
2023/04/06 10:11:36;;;;;;;24.98;16.10;;;;;;;12.60;56.65;100826.44;5086303;28;20102;-79
2023/04/06 10:14:03;;;;;;;23.92;15.65;;;;;;;12.64;56.92;100825.13;5084954;28;20080;-80
2023/04/06 10:16:30;;;;;;;25.67;15.98;;;;;;;12.66;56.60;100817.91;5084101;28;20508;-81
2023/04/06 10:19:01;;;;;;;22.35;14.88;;;;;;;12.74;56.89;100817.91;5078917;28;20103;-80
2023/04/06 10:21:30;;;;;;;26.55;15.93;;;;;;;12.57;57.03;100818.88;5080403;28;20054;-80
2023/04/06 10:24:01;;;;;;;24.63;16.10;;;;;;;13.73;56.29;100829.78;5077092;28;20416;-80
2023/04/06 10:26:29;;;;;;;24.77;14.43;;;;;;;14.05;53.30;100813.84;5079897;28;20040;-81
2023/04/06 10:28:55;;;;;;;20.92;14.23;;;;;;;13.07;53.84;100808.16;5072136;28;20044;-81
2023/04/06 10:31:26;;;;;;;23.65;14.43;;;;;;;13.06;53.88;100806.53;5071925;28;20045;-81
2023/04/06 10:33:56;;;;;;;24.13;14.90;;;;;;;12.86;54.22;100811.31;5071546;28;20521;-80
2023/04/06 10:36:27;;;;;;;26.08;15.18;;;;;;;12.62;54.82;100806.09;5079134;28;20534;-80
2023/04/06 10:39:00;;;;;;;26.17;15.35;;;;;;;13.31;55.09;100815.16;5078698;28;20044;-80
2023/04/06 10:41:34;;;;;;;23.20;15.10;;;;;;;13.99;54.13;100817.16;5075136;28;20041;-81
2023/04/06 10:44:01;;;;;;;23.98;15.23;;;;;;;14.00;54.16;100807.47;5080446;28;20052;-82
2023/04/06 10:46:29;;;;;;;22.10;15.18;;;;;;;13.90;53.91;100810.31;5081930;28;20036;-81
2023/04/06 10:48:56;;;;;;;22.88;14.43;;;;;;;13.33;54.70;100807.94;5080043;28;20071;-82
2023/04/06 10:51:27;;;;;;;25.70;16.15;;;;;;;13.58;54.47;100806.06;5091441;28;20044;-82
2023/04/06 10:53:55;;;;;;;25.67;15.93;;;;;;;13.93;54.42;100810.78;5078005;28;20108;-81
2023/04/06 10:56:27;;;;;;;22.10;15.60;;;;;;;13.81;55.47;100820.06;5073784;28;20591;-81
2023/04/06 10:58:56;;;;;;;28.35;16.58;;;;;;;13.88;54.08;100804.41;5080570;28;20049;-81
2023/04/06 11:01:24;;;;;;;25.65;15.90;;;;;;;14.27;54.55;100809.56;5077786;28;20056;-81
2023/04/06 11:03:53;;;;;;;23.38;16.05;;;;;;;14.59;53.68;100805.91;5077476;28;20087;-81
2023/04/06 11:06:20;;;;;;;23.27;15.30;;;;;;;14.81;53.18;100794.50;5078344;28;20044;-81
2023/04/06 11:08:47;;;;;;;33.42;16.08;;;;;;;14.94;52.47;100785.97;5080327;28;20041;-80
2023/04/06 11:11:18;;;;;;;29.90;16.08;;;;;;;14.71;52.50;100799.19;5071827;28;20098;-80
2023/04/06 11:13:50;;;;;;;30.25;16.02;;;;;;;14.74;52.44;100793.56;5074616;28;20106;-80
2023/04/06 11:16:19;;;;;;;29.83;16.70;;;;;;;14.96;52.67;100798.97;5077205;28;20051;-80
2023/04/06 11:18:52;;;;;;;24.13;15.30;;;;;;;15.06;51.95;100803.00;5073098;28;20079;-80
2023/04/06 11:21:20;;;;;;;21.25;15.25;;;;;;;15.14;50.42;100784.44;5068247;28;20057;-80
2023/04/06 11:23:48;;;;;;;25.92;16.00;;;;;;;14.98;51.69;100786.44;5077321;28;20064;-80
2023/04/06 11:26:16;;;;;;;25.48;15.15;;;;;;;14.58;51.79;100799.00;5067021;28;20044;-79
2023/04/06 11:28:44;;;;;;;23.15;15.45;;;;;;;14.46;51.97;100797.78;5071795;28;20044;-79
2023/04/06 11:31:14;;;;;;;24.92;14.82;;;;;;;14.33;52.42;100797.53;5072009;28;20056;-80
2023/04/06 11:33:42;;;;;;;21.17;14.18;;;;;;;14.15;53.83;100806.56;5075405;28;20056;-80
2023/04/06 11:36:09;;;;;;;24.75;14.77;;;;;;;14.08;54.04;100804.78;5071646;28;20063;-82
2023/04/06 11:38:40;;;;;;;33.03;15.55;;;;;;;14.43;53.90;100803.41;5069324;28;20078;-80
2023/04/06 11:41:07;;;;;;;24.35;14.23;;;;;;;14.24;52.80;100792.31;5079188;28;20053;-78
2023/04/06 11:43:33;;;;;;;26.55;14.13;;;;;;;14.57;52.65;100787.66;5069205;28;20049;-81
2023/04/06 11:46:01;;;;;;;25.58;14.23;;;;;;;14.33;52.88;100794.91;5078997;28;20073;-80
2023/04/06 11:48:30;;;;;;;20.35;13.38;;;;;;;14.06;52.57;100799.69;5082188;28;20083;-78
2023/04/06 11:50:58;;;;;;;23.30;13.63;;;;;;;14.23;52.65;100789.84;5078370;28;20102;-80
2023/04/06 11:53:25;;;;;;;20.67;13.63;;;;;;;14.54;52.25;100785.38;5080536;28;20079;-78
2023/04/06 11:55:52;;;;;;;21.60;13.38;;;;;;;14.82;51.84;100784.78;5078193;28;20087;-79
2023/04/06 11:58:19;;;;;;;23.98;12.55;;;;;;;14.76;51.69;100775.78;5067203;28;20478;-79
2023/04/06 12:00:46;;;;;;;23.73;14.65;;;;;;;14.76;51.92;100796.03;5077316;28;20048;-79
2023/04/06 12:03:13;;;;;;;21.70;14.13;;;;;;;14.57;51.67;100781.56;5079109;28;20049;-79
2023/04/06 12:05:45;;;;;;;22.33;13.40;;;;;;;14.36;51.25;100778.75;5081999;28;20098;-78
2023/04/06 12:08:11;;;;;;;22.37;14.17;;;;;;;14.59;51.44;100776.94;5070475;28;20044;-78
2023/04/06 12:10:38;;;;;;;23.40;13.70;;;;;;;14.75;51.61;100779.41;5070544;28;20314;-79
2023/04/06 12:13:05;;;;;;;22.52;12.82;;;;;;;14.13;52.32;100792.75;5079720;28;20079;-79
2023/04/06 12:15:32;;;;;;;23.13;14.18;;;;;;;14.26;51.95;100785.06;5072390;28;20080;-79
2023/04/06 12:17:58;;;;;;;22.80;13.07;;;;;;;14.34;51.66;100786.00;5075867;28;20111;-78
2023/04/06 12:20:25;;;;;;;22.80;11.98;;;;;;;14.14;52.28;100791.75;5070671;28;20048;-80
2023/04/06 12:22:53;;;;;;;19.20;11.02;;;;;;;14.02;52.17;100773.91;5073982;28;20102;-81
2023/04/06 12:25:20;;;;;;;17.10;10.27;;;;;;;14.48;52.25;100791.34;5067754;28;20488;-79
2023/04/06 12:27:47;;;;;;;21.05;11.35;;;;;;;14.39;51.98;100784.47;5097064;28;20125;-79
2023/04/06 12:30:14;;;;;;;24.65;11.95;;;;;;;14.27;52.53;100781.44;5085496;28;20118;-80
2023/04/06 12:32:41;;;;;;;19.98;11.45;;;;;;;14.39;52.85;100788.94;5076619;28;20049;-78
2023/04/06 12:35:11;;;;;;;17.27;11.43;;;;;;;14.91;51.93;100789.78;5076571;28;20078;-80
2023/04/06 12:37:38;;;;;;;16.75;11.85;;;;;;;14.43;53.45;100795.50;5085133;28;20511;-79
2023/04/06 12:40:10;;;;;;;19.90;11.27;;;;;;;13.93;53.32;100792.38;5071799;28;20087;-79
2023/04/06 12:42:37;;;;;;;27.98;12.38;;;;;;;13.98;53.94;100805.00;5078472;28;20112;-79
2023/04/06 12:45:04;;;;;;;19.33;11.30;;;;;;;14.12;54.04;100793.75;5078334;28;20082;-79